createdAt,value
2022-08-23T00:00:01.195Z,5.30
2022-08-23T00:05:31.428Z,4.20
2022-08-23T00:10:34.412Z,7.90
2022-08-23T00:15:37.895Z,6.30
2022-08-23T00:20:40.633Z,7.90
2022-08-23T00:25:43.934Z,7.30
2022-08-23T00:30:46.713Z,6.40
2022-08-23T00:35:49.978Z,6.90
2022-08-23T00:40:53.933Z,5.50
2022-08-23T00:46:33.574Z,5.70
2022-08-23T00:51:57.765Z,4.70
2022-08-23T00:57:05.672Z,7.90
2022-08-23T01:02:09.956Z,6.70
2022-08-23T01:07:19.609Z,7.70
2022-08-23T01:12:35.516Z,5.80
2022-08-23T01:17:46.573Z,6.20
2022-08-23T01:22:59.018Z,8.00
2022-08-23T01:28:01.991Z,9.10
2022-08-23T01:33:07.426Z,7.60
2022-08-23T01:38:11.685Z,8.30
2022-08-23T01:43:15.509Z,8.90
2022-08-23T01:48:18.907Z,7.10
2022-08-23T01:53:21.578Z,6.70
2022-08-23T01:58:24.781Z,8.50
2022-08-23T02:03:29.718Z,7.00
2022-08-23T02:08:52.463Z,6.20
2022-08-23T02:13:58.934Z,10.30
2022-08-23T02:19:06.078Z,7.20
2022-08-23T02:24:22.086Z,6.50
2022-08-23T02:29:29.671Z,7.30
2022-08-23T02:34:32.544Z,7.00
2022-08-23T02:39:38.774Z,5.70
2022-08-23T02:44:42.102Z,11.10
2022-08-23T02:49:44.858Z,8.30
2022-08-23T02:54:50.589Z,10.00
2022-08-23T02:59:56.016Z,12.70
2022-08-23T03:04:59.319Z,9.90
2022-08-23T03:10:02.476Z,10.10
2022-08-23T03:15:06.889Z,11.50
2022-08-23T03:20:11.241Z,10.10
2022-08-23T03:25:13.925Z,14.80
2022-08-23T03:30:19.935Z,15.20
2022-08-23T03:35:23.022Z,21.70
2022-08-23T03:40:26.114Z,20.40
2022-08-23T03:45:29.759Z,11.70
2022-08-23T03:50:32.533Z,8.40
2022-08-23T03:55:38.502Z,8.00
2022-08-23T04:00:45.320Z,10.20
2022-08-23T04:05:48.548Z,8.70
2022-08-23T04:10:51.304Z,8.90
2022-08-23T04:15:55.231Z,6.00
2022-08-23T04:21:01.517Z,7.60
2022-08-23T04:26:05.923Z,10.00
2022-08-23T04:31:12.556Z,8.20
2022-08-23T04:36:15.281Z,9.10
2022-08-23T04:41:37.591Z,13.70
2022-08-23T04:46:40.917Z,14.70
2022-08-23T04:51:43.829Z,17.10
2022-08-23T04:56:56.682Z,12.70
2022-08-23T05:01:59.489Z,17.30
2022-08-23T05:07:02.701Z,10.10
2022-08-23T05:12:05.794Z,11.90
2022-08-23T05:17:08.509Z,12.80
2022-08-23T05:22:12.537Z,14.10
2022-08-23T05:27:16.186Z,7.80
2022-08-23T05:32:19.160Z,8.50
2022-08-23T05:37:21.913Z,8.90
2022-08-23T05:42:24.705Z,8.40
2022-08-23T05:47:28.279Z,7.60
2022-08-23T05:52:36.678Z,6.00
2022-08-23T05:57:39.674Z,7.70
2022-08-23T06:02:43.084Z,12.10
2022-08-23T06:07:45.863Z,9.40
2022-08-23T06:12:49.108Z,10.90
2022-08-23T06:17:51.883Z,10.20
2022-08-23T06:22:54.662Z,8.00
2022-08-23T06:27:58.892Z,10.80
2022-08-23T06:33:02.956Z,5.50
2022-08-23T06:38:06.966Z,12.50
2022-08-23T06:43:09.968Z,8.50
2022-08-23T06:48:17.022Z,5.60
2022-08-23T06:53:21.453Z,7.70
2022-08-23T06:58:25.422Z,7.10
2022-08-23T07:03:28.655Z,8.30
2022-08-23T07:08:31.452Z,7.40
2022-08-23T07:13:34.605Z,7.00
2022-08-23T07:18:37.680Z,10.90
2022-08-23T07:23:42.836Z,12.00
2022-08-23T07:28:50.334Z,9.00
2022-08-23T07:33:58.859Z,9.80
2022-08-23T07:39:04.549Z,8.90
2022-08-23T07:44:10.186Z,7.40
2022-08-23T07:49:13.672Z,10.50
2022-08-23T07:54:18.376Z,11.50
2022-08-23T07:59:21.087Z,15.00
2022-08-23T08:04:23.765Z,5.60
2022-08-23T08:09:26.611Z,10.20
2022-08-23T08:14:29.718Z,11.70
2022-08-23T08:19:32.521Z,7.20
2022-08-23T08:24:35.795Z,6.90
2022-08-23T08:29:38.695Z,9.90
2022-08-23T08:34:42.122Z,8.50
2022-08-23T08:39:48.013Z,6.90
2022-08-23T08:45:05.656Z,5.80
2022-08-23T08:50:14.562Z,7.70
2022-08-23T08:55:32.077Z,5.90
2022-08-23T09:00:39.237Z,8.50
2022-08-23T09:05:56.393Z,6.40
2022-08-23T09:11:24.157Z,5.70
2022-08-23T09:16:41.819Z,6.30
2022-08-23T09:21:49.776Z,7.50
2022-08-23T09:26:54.034Z,12.40
2022-08-23T09:32:02.344Z,11.40
2022-08-23T09:37:18.009Z,9.50
2022-08-23T09:42:35.982Z,11.20
2022-08-23T09:47:44.869Z,8.70
2022-08-23T09:52:48.741Z,11.40
2022-08-23T09:57:52.108Z,8.30
2022-08-23T10:02:57.997Z,10.50
2022-08-23T10:08:02.624Z,11.10
2022-08-23T10:13:06.240Z,10.90
2022-08-23T10:18:29.081Z,15.00
2022-08-23T10:23:56.427Z,9.10
2022-08-23T10:29:23.254Z,10.70
2022-08-23T10:34:31.748Z,13.00
2022-08-23T10:40:03.518Z,9.90
2022-08-23T10:45:30.586Z,11.70
2022-08-23T10:50:43.067Z,9.70
2022-08-23T10:56:15.629Z,12.30
2022-08-23T11:01:44.247Z,11.70
2022-08-23T11:06:55.550Z,11.20
2022-08-23T11:12:23.668Z,14.30
2022-08-23T11:17:48.382Z,12.10
2022-08-23T11:22:57.411Z,11.10
2022-08-23T11:28:22.127Z,8.90
2022-08-23T11:33:31.492Z,10.80
2022-08-23T11:38:49.337Z,8.00
2022-08-23T11:44:07.825Z,10.40
2022-08-23T11:49:28.927Z,9.80
2022-08-23T11:54:56.832Z,11.50
2022-08-23T12:00:28.633Z,8.70
2022-08-23T12:05:35.411Z,9.40
2022-08-23T12:10:38.073Z,7.00
2022-08-23T12:16:16.917Z,11.70
2022-08-23T12:21:43.987Z,11.30
2022-08-23T12:27:11.429Z,9.80
2022-08-23T12:32:37.917Z,8.80
2022-08-23T12:37:56.881Z,12.10
2022-08-23T12:43:23.112Z,13.00
2022-08-23T12:48:30.216Z,14.10
2022-08-23T12:53:38.520Z,12.60
2022-08-23T12:58:52.515Z,10.80
2022-08-23T13:04:06.321Z,17.30
2022-08-23T13:09:22.659Z,15.90
2022-08-23T13:14:26.733Z,15.00
2022-08-23T13:19:34.118Z,12.30
2022-08-23T13:24:40.422Z,14.00
2022-08-23T13:29:52.317Z,15.80
2022-08-23T13:34:56.710Z,14.50
2022-08-23T13:40:14.281Z,11.10
2022-08-23T13:45:25.532Z,13.60
2022-08-23T13:50:35.291Z,12.30
2022-08-23T13:55:46.461Z,14.30
2022-08-23T14:00:55.303Z,13.70
2022-08-23T14:05:58.386Z,16.80
2022-08-23T14:11:01.492Z,12.00
2022-08-23T14:21:32.327Z,17.10
2022-08-23T14:26:35.302Z,10.30
2022-08-23T14:31:38.245Z,13.30
2022-08-23T14:38:00.239Z,15.30
2022-08-23T14:42:07.989Z,23.10
2022-08-23T14:47:11.529Z,16.50
2022-08-23T14:52:15.626Z,17.40
2022-08-23T14:57:18.418Z,10.20
2022-08-23T15:02:24.823Z,12.30
2022-08-23T15:07:27.762Z,16.80
2022-08-23T15:17:57.627Z,10.70
2022-08-23T15:23:01.012Z,13.70
2022-08-23T15:28:12.204Z,12.20
2022-08-23T15:33:16.040Z,14.10
2022-08-23T15:38:22.968Z,16.20
2022-08-23T15:43:34.104Z,16.40
2022-08-23T15:48:44.736Z,18.40
2022-08-23T15:53:47.877Z,11.10
2022-08-23T15:58:54.114Z,18.20
2022-08-23T16:03:57.562Z,26.80
2022-08-23T16:09:00.871Z,18.90
2022-08-23T16:14:03.901Z,13.80
2022-08-23T16:19:08.918Z,14.50
2022-08-23T16:24:12.028Z,10.00
2022-08-23T16:29:18.222Z,10.70
2022-08-23T16:34:21.061Z,14.50
2022-08-23T16:39:24.475Z,13.60
2022-08-23T16:44:28.590Z,11.80
2022-08-23T16:49:34.378Z,8.70
2022-08-23T16:54:37.993Z,7.90
2022-08-23T16:59:40.796Z,9.50
2022-08-23T17:04:43.507Z,9.10
2022-08-23T17:09:47.221Z,11.70
2022-08-23T17:14:51.512Z,7.90
2022-08-23T17:19:54.312Z,9.80
2022-08-23T17:24:57.616Z,10.30
2022-08-23T17:30:00.835Z,10.90
2022-08-23T17:35:03.871Z,9.80
2022-08-23T17:40:10.840Z,11.90
2022-08-23T17:45:16.538Z,8.90
2022-08-23T17:50:20.780Z,9.90
2022-08-23T17:55:24.853Z,10.50
2022-08-23T18:00:28.726Z,10.10
2022-08-23T18:05:33.398Z,10.40
2022-08-23T18:10:36.671Z,11.20
2022-08-23T18:15:39.657Z,13.60
2022-08-23T18:20:42.399Z,10.80
2022-08-23T18:25:45.922Z,10.20
2022-08-23T18:30:54.730Z,9.70
2022-08-23T18:35:57.530Z,9.70
2022-08-23T18:41:00.273Z,8.90
2022-08-23T18:46:03.121Z,9.30
2022-08-23T18:51:16.301Z,10.50
2022-08-23T18:56:21.283Z,12.70
2022-08-23T19:01:26.757Z,13.30
2022-08-23T19:06:30.344Z,11.00
2022-08-23T19:11:33.653Z,15.40
2022-08-23T19:16:37.249Z,21.00
2022-08-23T19:21:40.267Z,10.40
2022-08-23T19:26:47.793Z,14.80
2022-08-23T19:31:50.768Z,13.10
2022-08-23T19:37:00.778Z,13.40
2022-08-23T19:42:11.458Z,14.10
2022-08-23T19:52:23.046Z,15.90
2022-08-23T19:57:28.110Z,16.70
2022-08-23T20:02:30.982Z,16.70
2022-08-23T20:07:36.326Z,19.50
2022-08-23T20:12:39.389Z,17.00
2022-08-23T20:17:42.312Z,16.30
2022-08-23T20:23:04.169Z,17.80
2022-08-23T20:28:08.384Z,14.30
2022-08-23T20:33:11.139Z,15.70
2022-08-23T20:38:32.753Z,15.10
2022-08-23T20:43:39.152Z,14.30
2022-08-23T20:48:41.952Z,14.90
2022-08-23T20:53:45.677Z,13.80
2022-08-23T20:58:48.493Z,13.60
2022-08-23T21:03:52.425Z,14.90
2022-08-23T21:08:57.981Z,13.70
2022-08-23T21:14:00.955Z,14.30
2022-08-23T21:19:03.921Z,12.40
2022-08-23T21:24:08.937Z,15.90
2022-08-23T21:29:11.941Z,11.40
2022-08-23T21:34:15.179Z,11.80
2022-08-23T21:39:17.980Z,12.20
2022-08-23T21:44:21.396Z,11.30
2022-08-23T21:49:24.222Z,9.00
2022-08-23T21:54:27.295Z,13.20
2022-08-23T21:59:30.088Z,13.30
2022-08-23T22:04:33.000Z,10.30
2022-08-23T22:09:36.144Z,12.30
2022-08-23T22:14:39.030Z,10.00
2022-08-23T22:19:41.766Z,8.60
2022-08-23T22:24:44.531Z,8.40
2022-08-23T22:29:47.562Z,14.30
2022-08-23T22:34:50.367Z,12.30
2022-08-23T22:39:56.388Z,9.30
2022-08-23T22:45:00.353Z,9.60
2022-08-23T22:50:04.643Z,14.70
2022-08-23T22:55:08.375Z,9.50
2022-08-23T23:00:13.693Z,11.00
2022-08-23T23:05:16.496Z,12.10
2022-08-23T23:10:19.357Z,8.40
2022-08-23T23:15:22.463Z,10.30
2022-08-23T23:20:39.330Z,14.40
2022-08-23T23:25:42.953Z,9.50
2022-08-23T23:30:48.642Z,7.90
2022-08-23T23:35:54.334Z,9.90
2022-08-23T23:40:57.088Z,11.30
2022-08-23T23:46:05.023Z,11.60
2022-08-23T23:51:13.212Z,9.20
2022-08-23T23:56:17.771Z,8.00
